createdAt,value
2018-07-22T00:00:52.970Z,90.75
2018-07-22T00:03:21.407Z,91.05
2018-07-22T00:05:49.834Z,90.37
2018-07-22T00:08:18.342Z,91.59
2018-07-22T00:10:46.935Z,90.87
2018-07-22T00:13:15.331Z,90.93
2018-07-22T00:15:43.852Z,89.33
2018-07-22T00:18:12.309Z,90.05
2018-07-22T00:20:40.800Z,89.57
2018-07-22T00:23:09.255Z,90.14
2018-07-22T00:25:37.691Z,90.20
2018-07-22T00:28:06.143Z,90.58
2018-07-22T00:30:34.839Z,90.88
2018-07-22T00:33:03.320Z,89.92
2018-07-22T00:35:31.787Z,90.55
2018-07-22T00:38:00.661Z,90.89
2018-07-22T00:40:29.183Z,89.38
2018-07-22T00:42:57.647Z,89.00
2018-07-22T00:45:26.321Z,89.65
2018-07-22T00:47:54.819Z,89.77
2018-07-22T00:50:23.251Z,89.23
2018-07-22T00:52:51.815Z,88.81
2018-07-22T00:55:20.351Z,88.57
2018-07-22T00:57:48.809Z,89.59
2018-07-22T01:00:17.309Z,88.56
2018-07-22T01:02:45.719Z,89.48
2018-07-22T01:05:14.194Z,88.55
2018-07-22T01:07:42.639Z,88.97
2018-07-22T01:10:11.072Z,88.60
2018-07-22T01:12:39.485Z,87.60
2018-07-22T01:15:08.172Z,88.49
2018-07-22T01:17:36.678Z,88.05
2018-07-22T01:20:06.019Z,89.22
2018-07-22T01:22:34.529Z,88.43
2018-07-22T01:25:03.080Z,88.45
2018-07-22T01:27:31.483Z,88.51
2018-07-22T01:29:59.975Z,89.84
2018-07-22T01:32:28.455Z,90.19
2018-07-22T01:34:56.944Z,89.74
2018-07-22T01:37:27.890Z,89.99
2018-07-22T01:39:56.420Z,89.29
2018-07-22T01:42:24.887Z,88.99
2018-07-22T01:44:53.611Z,87.74
2018-07-22T01:47:22.104Z,89.30
2018-07-22T01:49:50.587Z,89.30
2018-07-22T01:52:19.298Z,90.66
2018-07-22T01:54:47.808Z,90.72
2018-07-22T01:57:16.185Z,89.85
2018-07-22T01:59:44.669Z,91.08
2018-07-22T02:02:13.179Z,89.86
2018-07-22T02:04:41.784Z,90.77
2018-07-22T02:07:10.183Z,90.15
2018-07-22T02:09:38.587Z,89.67
2018-07-22T02:12:07.039Z,90.44
2018-07-22T02:14:35.686Z,90.28
2018-07-22T02:17:04.232Z,90.30
2018-07-22T02:19:32.695Z,89.68
2018-07-22T02:22:01.479Z,90.18
2018-07-22T02:24:30.008Z,89.64
2018-07-22T02:26:58.483Z,90.88
2018-07-22T02:29:27.173Z,90.25
2018-07-22T02:31:55.604Z,90.70
2018-07-22T02:34:24.067Z,90.62
2018-07-22T02:36:52.906Z,91.25
2018-07-22T02:39:21.315Z,90.94
2018-07-22T02:41:49.760Z,90.74
2018-07-22T02:44:18.279Z,91.90
2018-07-22T02:46:46.763Z,91.17
2018-07-22T02:49:15.289Z,90.99
2018-07-22T02:51:43.772Z,91.02
2018-07-22T02:54:12.191Z,90.25
2018-07-22T02:56:40.866Z,89.96
2018-07-22T02:59:09.427Z,88.94
2018-07-22T03:01:38.907Z,87.28
2018-07-22T03:04:08.260Z,88.87
2018-07-22T03:06:36.939Z,89.34
2018-07-22T03:09:07.731Z,89.47
2018-07-22T03:11:36.212Z,89.86
2018-07-22T03:14:04.767Z,90.05
2018-07-22T03:16:33.303Z,90.53
2018-07-22T03:19:01.740Z,87.98
2018-07-22T03:21:30.291Z,89.55
2018-07-22T03:23:59.119Z,89.28
2018-07-22T03:26:27.756Z,89.96
2018-07-22T03:28:56.300Z,90.56
2018-07-22T03:31:24.739Z,89.84
2018-07-22T03:33:53.434Z,90.64
2018-07-22T03:36:21.968Z,90.71
2018-07-22T03:38:50.447Z,93.16
2018-07-22T03:41:19.331Z,92.74
2018-07-22T03:43:47.743Z,91.63
2018-07-22T03:46:16.134Z,92.16
2018-07-22T03:48:44.810Z,91.59
2018-07-22T03:51:13.218Z,91.62
2018-07-22T03:53:41.651Z,91.67
2018-07-22T03:56:10.510Z,91.90
2018-07-22T03:58:38.919Z,91.51
2018-07-22T04:01:07.651Z,91.86
2018-07-22T04:03:36.295Z,91.00
2018-07-22T04:06:04.671Z,90.93
2018-07-22T04:08:33.111Z,91.33
2018-07-22T04:11:01.616Z,91.12
2018-07-22T04:13:30.075Z,90.68
2018-07-22T04:15:58.471Z,90.84
2018-07-22T04:18:26.994Z,91.74
2018-07-22T04:20:55.431Z,91.39
2018-07-22T04:23:23.999Z,90.53
2018-07-22T04:25:52.747Z,90.46
2018-07-22T04:28:21.295Z,91.28
2018-07-22T04:30:49.692Z,91.08
2018-07-22T04:33:18.321Z,91.01
2018-07-22T04:35:46.828Z,90.73
2018-07-22T04:38:15.326Z,90.08
2018-07-22T04:40:43.742Z,90.21
2018-07-22T04:43:12.211Z,89.41
2018-07-22T04:45:40.703Z,89.79
2018-07-22T04:48:09.210Z,89.40
2018-07-22T04:50:37.727Z,88.35
2018-07-22T04:53:06.243Z,86.85
2018-07-22T04:55:34.823Z,86.19
2018-07-22T04:58:03.290Z,85.36
2018-07-22T05:00:31.718Z,84.06
2018-07-22T05:03:00.221Z,84.56
2018-07-22T05:05:28.659Z,84.34
2018-07-22T05:07:57.204Z,85.09
2018-07-22T05:10:25.623Z,85.96
2018-07-22T05:12:54.166Z,85.36
2018-07-22T05:15:22.775Z,85.10
2018-07-22T05:17:51.415Z,83.22
2018-07-22T05:20:20.057Z,82.37
2018-07-22T05:22:48.535Z,82.71
2018-07-22T05:25:17.043Z,82.52
2018-07-22T05:27:45.475Z,82.24
2018-07-22T05:30:13.907Z,81.30
2018-07-22T05:32:42.679Z,80.14
2018-07-22T05:35:11.115Z,80.26
2018-07-22T05:37:39.612Z,81.37
2018-07-22T05:40:08.151Z,82.02
2018-07-22T05:42:36.595Z,81.77
2018-07-22T05:45:05.098Z,82.51
2018-07-22T05:47:33.599Z,81.95
2018-07-22T05:50:02.114Z,81.75
2018-07-22T05:52:30.590Z,82.77
2018-07-22T05:54:59.043Z,83.10
2018-07-22T05:57:27.563Z,80.05
2018-07-22T05:59:55.975Z,80.58
2018-07-22T06:02:24.499Z,81.70
2018-07-22T06:04:53.056Z,80.09
2018-07-22T06:07:21.532Z,80.97
2018-07-22T06:09:49.995Z,79.96
2018-07-22T06:12:18.448Z,81.04
2018-07-22T06:14:46.974Z,79.86
2018-07-22T06:17:15.472Z,79.47
2018-07-22T06:19:43.916Z,78.94
2018-07-22T06:22:12.335Z,79.42
2018-07-22T06:24:40.987Z,78.70
2018-07-22T06:27:09.844Z,79.65
2018-07-22T06:29:38.666Z,77.84
2018-07-22T06:32:07.783Z,77.45
2018-07-22T06:34:36.298Z,77.17
2018-07-22T06:37:04.815Z,76.16
2018-07-22T06:39:33.315Z,75.56
2018-07-22T06:42:01.728Z,76.77
2018-07-22T06:44:30.132Z,73.67
2018-07-22T06:46:58.927Z,74.42
2018-07-22T06:49:27.339Z,73.52
2018-07-22T06:51:55.782Z,74.85
2018-07-22T06:54:24.363Z,71.72
2018-07-22T06:56:52.710Z,71.23
2018-07-22T06:59:21.256Z,72.14
2018-07-22T07:01:49.795Z,72.41
2018-07-22T07:04:18.250Z,72.81
2018-07-22T07:06:46.759Z,72.33
2018-07-22T07:09:15.223Z,71.43
2018-07-22T07:11:43.731Z,69.82
2018-07-22T07:14:12.347Z,70.20
2018-07-22T07:16:41.001Z,69.95
2018-07-22T07:19:09.424Z,71.08
2018-07-22T07:21:37.880Z,69.62
2018-07-22T07:24:06.455Z,68.37
2018-07-22T07:26:34.979Z,69.16
2018-07-22T07:29:03.568Z,70.64
2018-07-22T07:31:32.111Z,68.50
2018-07-22T07:34:00.551Z,67.64
2018-07-22T07:36:29.091Z,66.94
2018-07-22T07:38:57.735Z,66.77
2018-07-22T07:41:26.179Z,66.48
2018-07-22T07:43:55.251Z,66.47
2018-07-22T07:46:23.787Z,66.16
2018-07-22T07:48:52.265Z,67.08
2018-07-22T07:51:20.687Z,66.25
2018-07-22T07:53:49.407Z,65.65
2018-07-22T07:56:17.946Z,66.61
2018-07-22T07:58:46.351Z,65.33
2018-07-22T08:01:14.991Z,66.14
2018-07-22T08:03:43.399Z,65.34
2018-07-22T08:06:12.084Z,65.53
2018-07-22T08:08:40.645Z,64.86
2018-07-22T08:11:09.184Z,65.15
2018-07-22T08:13:37.643Z,63.82
2018-07-22T08:16:06.575Z,63.14
2018-07-22T08:18:35.059Z,63.45
2018-07-22T08:21:03.521Z,62.40
2018-07-22T08:23:31.947Z,64.08
2018-07-22T08:26:00.507Z,64.22
2018-07-22T08:28:40.425Z,63.32
2018-07-22T08:31:08.931Z,63.24
2018-07-22T08:33:37.434Z,62.46
2018-07-22T08:36:06.083Z,62.96
2018-07-22T08:38:34.664Z,61.29
2018-07-22T08:41:03.164Z,62.65
2018-07-22T08:43:31.783Z,62.39
2018-07-22T08:46:00.229Z,62.30
2018-07-22T08:48:28.699Z,61.74
2018-07-22T08:50:57.391Z,60.47
2018-07-22T08:53:25.812Z,61.17
2018-07-22T08:55:54.279Z,59.92
2018-07-22T08:58:22.839Z,58.05
2018-07-22T09:00:51.271Z,59.78
2018-07-22T09:03:19.764Z,58.99
2018-07-22T09:05:48.439Z,59.47
2018-07-22T09:08:17.001Z,58.47
2018-07-22T09:10:45.479Z,59.08
2018-07-22T09:13:14.016Z,59.83
2018-07-22T09:15:42.531Z,60.06
2018-07-22T09:18:11.114Z,58.40
2018-07-22T09:20:39.967Z,60.02
2018-07-22T09:23:08.412Z,58.45
2018-07-22T09:25:36.868Z,58.28
2018-07-22T09:28:05.497Z,57.89
2018-07-22T09:30:33.942Z,57.94
2018-07-22T09:33:02.423Z,57.06
2018-07-22T09:35:30.924Z,57.93
2018-07-22T09:37:59.374Z,57.43
2018-07-22T09:40:27.783Z,56.15
2018-07-22T09:42:56.432Z,58.08
2018-07-22T09:45:24.919Z,58.53
2018-07-22T09:47:53.382Z,56.82
2018-07-22T09:50:22.059Z,58.17
2018-07-22T09:52:50.607Z,56.79
2018-07-22T09:55:19.107Z,56.16
2018-07-22T09:57:47.619Z,56.00
2018-07-22T10:00:20.173Z,54.99
2018-07-22T10:02:48.659Z,54.02
2018-07-22T10:05:17.127Z,53.36
2018-07-22T10:07:45.615Z,55.42
2018-07-22T10:10:14.223Z,54.51
2018-07-22T10:12:42.620Z,54.60
2018-07-22T10:15:11.059Z,53.56
2018-07-22T10:17:39.813Z,54.11
2018-07-22T10:20:08.229Z,55.21
2018-07-22T10:22:36.707Z,54.91
2018-07-22T10:25:05.571Z,53.95
2018-07-22T10:27:33.988Z,54.19
2018-07-22T10:30:02.475Z,54.68
2018-07-22T10:32:31.274Z,54.07
2018-07-22T10:34:59.782Z,55.30
2018-07-22T10:37:28.306Z,53.87
2018-07-22T10:39:56.959Z,53.16
2018-07-22T10:42:25.639Z,53.55
2018-07-22T10:44:54.408Z,54.34
2018-07-22T10:47:23.139Z,53.62
2018-07-22T10:49:52.031Z,51.89
2018-07-22T10:52:20.840Z,53.04
2018-07-22T10:54:49.666Z,53.02
2018-07-22T10:57:18.187Z,51.24
2018-07-22T10:59:46.698Z,51.99
2018-07-22T11:02:15.273Z,51.26
2018-07-22T11:04:43.704Z,51.30
2018-07-22T11:07:12.187Z,51.32
2018-07-22T11:09:40.807Z,50.39
2018-07-22T11:12:09.284Z,49.17
2018-07-22T11:14:37.807Z,49.63
2018-07-22T11:17:06.275Z,50.73
2018-07-22T11:19:34.747Z,51.10
2018-07-22T11:22:03.211Z,51.53
2018-07-22T11:24:32.070Z,51.77
2018-07-22T11:27:00.521Z,52.41
2018-07-22T11:29:28.955Z,51.82
2018-07-22T11:31:57.490Z,52.59
2018-07-22T11:34:25.902Z,52.07
2018-07-22T11:36:54.447Z,50.45
2018-07-22T11:39:22.908Z,53.02
2018-07-22T11:41:51.379Z,52.40
2018-07-22T11:44:19.864Z,51.83
2018-07-22T11:46:48.344Z,53.35
2018-07-22T11:49:16.847Z,53.29
2018-07-22T11:51:45.263Z,51.48
2018-07-22T11:54:14.117Z,52.88
2018-07-22T11:56:42.526Z,52.14
2018-07-22T11:59:10.934Z,51.29
2018-07-22T12:01:39.619Z,51.01
2018-07-22T12:04:08.002Z,50.81
2018-07-22T12:06:36.419Z,51.19
2018-07-22T12:09:07.611Z,49.60
2018-07-22T12:11:36.108Z,51.35
2018-07-22T12:14:04.689Z,48.95
2018-07-22T12:16:33.329Z,49.71
2018-07-22T12:19:01.779Z,47.54
2018-07-22T12:21:30.341Z,48.71
2018-07-22T12:23:58.754Z,49.08
2018-07-22T12:26:27.144Z,48.75
2018-07-22T12:28:55.643Z,49.74
2018-07-22T12:31:24.304Z,48.24
2018-07-22T12:33:52.696Z,48.83
2018-07-22T12:36:21.107Z,47.05
2018-07-22T12:38:49.886Z,47.34
2018-07-22T12:41:18.307Z,46.76
2018-07-22T12:43:46.810Z,47.48
2018-07-22T12:46:15.417Z,46.95
2018-07-22T12:48:43.916Z,47.34
2018-07-22T12:51:12.363Z,47.61
2018-07-22T12:53:40.864Z,47.33
2018-07-22T12:56:09.243Z,47.06
2018-07-22T12:58:37.785Z,45.97
2018-07-22T13:01:06.319Z,47.44
2018-07-22T13:03:34.758Z,46.16
2018-07-22T13:06:03.262Z,45.58
2018-07-22T13:08:31.691Z,46.15
2018-07-22T13:11:00.107Z,46.24
2018-07-22T13:13:28.543Z,47.32
2018-07-22T13:15:57.395Z,46.64
2018-07-22T13:18:25.808Z,46.55
2018-07-22T13:20:54.220Z,46.43
2018-07-22T13:23:22.745Z,46.00
2018-07-22T13:25:51.180Z,46.92
2018-07-22T13:28:19.737Z,45.98
2018-07-22T13:30:48.239Z,45.26
2018-07-22T13:33:16.671Z,45.12
2018-07-22T13:35:45.197Z,44.36
2018-07-22T13:38:13.869Z,44.30
2018-07-22T13:40:42.367Z,43.44
2018-07-22T13:43:10.855Z,43.17
2018-07-22T13:45:39.335Z,41.74
2018-07-22T13:48:07.851Z,41.48
2018-07-22T13:50:36.344Z,41.81
2018-07-22T13:53:04.859Z,42.70
2018-07-22T13:55:33.343Z,42.96
2018-07-22T13:58:01.837Z,42.18
2018-07-22T14:00:30.441Z,42.98
2018-07-22T14:02:58.933Z,41.81
2018-07-22T14:05:27.407Z,40.85
2018-07-22T14:07:56.016Z,39.95
2018-07-22T14:10:24.491Z,38.57
2018-07-22T14:12:52.991Z,39.03
2018-07-22T14:15:21.399Z,39.95
2018-07-22T14:17:49.931Z,39.49
2018-07-22T14:20:18.307Z,40.11
2018-07-22T14:22:46.950Z,39.79
2018-07-22T14:25:15.359Z,39.85
2018-07-22T14:27:43.879Z,41.08
2018-07-22T14:30:12.779Z,41.39
2018-07-22T14:32:41.231Z,40.23
2018-07-22T14:35:09.773Z,40.48
2018-07-22T14:37:38.261Z,40.93
2018-07-22T14:40:06.714Z,41.62
2018-07-22T14:42:35.317Z,41.12
2018-07-22T14:45:03.923Z,41.37
2018-07-22T14:47:32.467Z,42.50
2018-07-22T14:50:00.923Z,40.70
2018-07-22T14:52:29.475Z,42.06
2018-07-22T14:54:57.858Z,41.01
2018-07-22T14:57:26.271Z,41.65
2018-07-22T14:59:54.954Z,45.71
2018-07-22T15:02:23.400Z,50.34
2018-07-22T15:04:51.899Z,53.10
2018-07-22T15:07:20.646Z,54.49
2018-07-22T15:09:49.191Z,55.12
2018-07-22T15:12:17.685Z,55.51
2018-07-22T15:14:46.189Z,57.07
2018-07-22T15:17:14.663Z,57.52
2018-07-22T15:19:43.135Z,59.95
2018-07-22T15:22:11.708Z,60.96
2018-07-22T15:24:40.123Z,60.68
2018-07-22T15:27:08.724Z,59.28
2018-07-22T15:29:37.501Z,60.25
2018-07-22T15:32:05.963Z,59.53
2018-07-22T15:34:34.474Z,58.79
2018-07-22T15:37:03.139Z,57.93
2018-07-22T15:39:31.687Z,58.55
2018-07-22T15:42:00.214Z,57.95
2018-07-22T15:44:29.007Z,57.67
2018-07-22T15:46:57.443Z,59.03
2018-07-22T15:49:26.009Z,59.73
2018-07-22T15:51:54.829Z,59.66
2018-07-22T15:54:23.315Z,59.64
2018-07-22T15:56:51.727Z,59.42
2018-07-22T15:59:20.358Z,59.70
2018-07-22T16:01:48.754Z,58.86
2018-07-22T16:04:17.562Z,58.41
2018-07-22T16:06:45.983Z,59.35
2018-07-22T16:09:14.454Z,58.77
2018-07-22T16:11:43.591Z,57.95
2018-07-22T16:14:12.237Z,58.00
2018-07-22T16:16:40.875Z,57.44
2018-07-22T16:19:09.347Z,58.05
2018-07-22T16:21:37.857Z,57.98
2018-07-22T16:24:06.360Z,57.31
2018-07-22T16:26:34.862Z,57.08
2018-07-22T16:29:03.311Z,57.93
2018-07-22T16:31:31.828Z,57.68
2018-07-22T16:34:00.332Z,57.16
2018-07-22T16:36:28.857Z,57.11
2018-07-22T16:38:57.428Z,55.99
2018-07-22T16:41:25.920Z,56.43
2018-07-22T16:43:54.564Z,56.67
2018-07-22T16:46:23.199Z,57.09
2018-07-22T16:48:51.727Z,55.94
2018-07-22T16:51:20.160Z,56.83
2018-07-22T16:53:48.747Z,56.53
2018-07-22T16:56:17.279Z,56.70
2018-07-22T16:58:45.775Z,55.19
2018-07-22T17:01:14.278Z,55.81
2018-07-22T17:03:42.767Z,55.18
2018-07-22T17:06:11.519Z,55.35
2018-07-22T17:08:39.939Z,54.45
2018-07-22T17:11:08.446Z,53.09
2018-07-22T17:13:36.955Z,54.21
2018-07-22T17:16:05.762Z,54.57
2018-07-22T17:18:34.213Z,53.85
2018-07-22T17:21:02.934Z,54.55
2018-07-22T17:23:31.946Z,54.62
2018-07-22T17:26:00.552Z,54.16
2018-07-22T17:28:29.702Z,53.88
2018-07-22T17:30:58.234Z,53.59
2018-07-22T17:33:26.650Z,52.73
2018-07-22T17:35:55.303Z,55.28
2018-07-22T17:38:23.807Z,54.50
2018-07-22T17:40:52.203Z,54.22
2018-07-22T17:43:20.833Z,54.99
2018-07-22T17:45:49.404Z,54.31
2018-07-22T17:48:17.891Z,54.72
2018-07-22T17:50:46.767Z,55.29
2018-07-22T17:53:15.192Z,54.89
2018-07-22T17:55:43.587Z,54.63
2018-07-22T17:58:12.044Z,54.05
2018-07-22T18:00:40.483Z,53.76
2018-07-22T18:03:21.308Z,54.47
2018-07-22T18:05:50.304Z,53.96
2018-07-22T18:08:19.091Z,54.80
2018-07-22T18:10:47.938Z,54.47
2018-07-22T18:13:16.815Z,54.45
2018-07-22T18:15:45.295Z,53.52
2018-07-22T18:18:14.668Z,53.97
2018-07-22T18:20:44.003Z,54.77
2018-07-22T18:23:12.545Z,54.88
2018-07-22T18:25:42.284Z,55.54
2018-07-22T18:28:10.747Z,54.22
2018-07-22T18:30:39.147Z,54.72
2018-07-22T18:33:07.871Z,55.01
2018-07-22T18:35:36.427Z,55.62
2018-07-22T18:38:04.953Z,55.38
2018-07-22T18:40:33.587Z,56.37
2018-07-22T18:43:01.999Z,55.80
2018-07-22T18:45:30.449Z,56.49
2018-07-22T18:47:59.019Z,56.60
2018-07-22T18:50:27.487Z,58.13
2018-07-22T18:52:55.907Z,57.78
2018-07-22T18:55:24.720Z,58.88
2018-07-22T18:57:53.253Z,58.27
2018-07-22T19:00:21.739Z,59.14
2018-07-22T19:02:50.411Z,59.03
2018-07-22T19:05:18.957Z,59.22
2018-07-22T19:07:47.436Z,59.75
2018-07-22T19:10:16.091Z,59.26
2018-07-22T19:12:44.542Z,58.84
2018-07-22T19:15:13.219Z,59.80
2018-07-22T19:17:41.890Z,61.08
2018-07-22T19:20:10.359Z,60.84
2018-07-22T19:22:38.835Z,62.45
2018-07-22T19:25:07.530Z,62.42
2018-07-22T19:27:36.006Z,63.02
2018-07-22T19:30:04.890Z,64.31
2018-07-22T19:32:33.567Z,63.27
2018-07-22T19:35:02.095Z,64.14
2018-07-22T19:37:30.559Z,64.21
2018-07-22T19:40:00.011Z,64.80
2018-07-22T19:42:28.451Z,65.14
2018-07-22T19:44:56.897Z,64.84
2018-07-22T19:47:25.559Z,65.25
2018-07-22T19:49:53.976Z,64.75
2018-07-22T19:52:22.493Z,65.16
2018-07-22T19:54:51.060Z,65.56
2018-07-22T19:57:19.560Z,64.87
2018-07-22T19:59:48.003Z,64.62
2018-07-22T20:02:16.641Z,64.61
2018-07-22T20:04:45.161Z,64.88
2018-07-22T20:07:13.641Z,65.37
2018-07-22T20:09:42.930Z,65.38
2018-07-22T20:12:11.363Z,67.60
2018-07-22T20:14:39.849Z,67.34
2018-07-22T20:17:08.511Z,67.33
2018-07-22T20:19:37.035Z,69.45
2018-07-22T20:22:05.506Z,70.02
2018-07-22T20:24:34.204Z,68.72
2018-07-22T20:27:02.720Z,68.76
2018-07-22T20:29:31.231Z,69.01
2018-07-22T20:31:59.895Z,68.74
2018-07-22T20:34:28.355Z,69.54
2018-07-22T20:36:56.789Z,72.39
2018-07-22T20:39:25.351Z,72.09
2018-07-22T20:41:53.930Z,73.10
2018-07-22T20:44:22.443Z,73.93
2018-07-22T20:46:51.199Z,72.14
2018-07-22T20:49:19.599Z,72.01
2018-07-22T20:51:48.075Z,70.50
2018-07-22T20:54:16.874Z,71.58
2018-07-22T20:56:45.389Z,71.12
2018-07-22T20:59:13.884Z,73.37
2018-07-22T21:01:42.414Z,74.17
2018-07-22T21:04:10.903Z,74.18
2018-07-22T21:06:39.416Z,72.88
2018-07-22T21:09:09.124Z,74.19
2018-07-22T21:11:49.475Z,74.04
2018-07-22T21:14:18.327Z,74.15
2018-07-22T21:16:46.784Z,74.01
2018-07-22T21:19:15.302Z,74.56
2018-07-22T21:21:43.895Z,74.08
2018-07-22T21:24:12.323Z,74.04
2018-07-22T21:26:40.884Z,74.34
2018-07-22T21:29:09.385Z,74.53
2018-07-22T21:31:37.791Z,73.64
2018-07-22T21:34:06.383Z,74.50
2018-07-22T21:36:34.962Z,74.87
2018-07-22T21:39:03.883Z,75.04
2018-07-22T21:41:32.411Z,76.16
2018-07-22T21:44:01.268Z,76.45
2018-07-22T21:46:29.791Z,76.09
2018-07-22T21:48:58.303Z,76.90
2018-07-22T21:51:26.787Z,76.45
2018-07-22T21:53:55.211Z,76.69
2018-07-22T21:56:23.824Z,77.40
2018-07-22T21:58:52.539Z,76.67
2018-07-22T22:01:20.971Z,77.53
2018-07-22T22:03:49.397Z,77.48
2018-07-22T22:06:17.966Z,78.76
2018-07-22T22:08:46.451Z,78.71
2018-07-22T22:11:14.923Z,78.56
2018-07-22T22:13:43.740Z,79.79
2018-07-22T22:16:12.259Z,80.20
2018-07-22T22:18:40.689Z,81.17
2018-07-22T22:21:09.664Z,80.62
2018-07-22T22:23:38.103Z,81.59
2018-07-22T22:26:06.503Z,80.55
2018-07-22T22:28:35.178Z,80.01
2018-07-22T22:31:03.599Z,79.46
2018-07-22T22:33:32.128Z,79.06
2018-07-22T22:36:00.739Z,78.92
2018-07-22T22:38:29.200Z,79.21
2018-07-22T22:40:57.677Z,78.30
2018-07-22T22:43:26.083Z,78.87
2018-07-22T22:45:54.586Z,80.41
2018-07-22T22:48:22.994Z,80.97
2018-07-22T22:50:51.619Z,81.23
2018-07-22T22:53:20.083Z,80.31
2018-07-22T22:55:48.505Z,81.36
2018-07-22T22:58:28.598Z,79.69
2018-07-22T23:00:57.131Z,81.50
2018-07-22T23:03:25.570Z,80.57
2018-07-22T23:05:54.265Z,81.21
2018-07-22T23:08:22.693Z,81.47
2018-07-22T23:10:51.124Z,83.02
2018-07-22T23:13:19.742Z,83.28
2018-07-22T23:15:48.188Z,81.66
2018-07-22T23:18:16.631Z,82.52
2018-07-22T23:20:45.355Z,81.87
2018-07-22T23:23:13.839Z,82.08
2018-07-22T23:25:42.356Z,82.43
2018-07-22T23:28:10.871Z,82.28
2018-07-22T23:30:39.338Z,83.14
2018-07-22T23:33:08.633Z,82.70
2018-07-22T23:35:37.322Z,83.22
2018-07-22T23:38:06.188Z,83.40
2018-07-22T23:40:34.627Z,82.45
2018-07-22T23:43:03.199Z,82.80
2018-07-22T23:45:31.727Z,81.97
2018-07-22T23:48:00.246Z,82.42
2018-07-22T23:50:29.205Z,83.28
2018-07-22T23:52:57.754Z,84.37
2018-07-22T23:55:26.239Z,84.46
2018-07-22T23:57:54.883Z,85.00
